Time;durP1;ratioP1;P1;durP2;ratioP2;P2;SDS_P1;SDS_P2;PMS_P1;PMS_P2;Temp;Humidity;BMP_temperature;BMP_pressure;BME280_temperature;BME280_humidity;BME280_pressure;Samples;Min_cycle;Max_cycle;Signal;HPM_P1;HPM_P2
2021/11/04 00:00:23;;;;;;;;;23.25;21.50;;;;;;;;5082796;28;11558;-84
2021/11/04 00:02:51;;;;;;;;;30.00;25.75;;;;;;;;5083123;28;11574;-74
2021/11/04 00:05:19;;;;;;;;;21.25;21.25;;;;;;;;5084194;28;11806;-78
2021/11/04 00:07:48;;;;;;;;;22.75;20.50;;;;;;;;5060479;28;11641;-74
2021/11/04 00:10:17;;;;;;;;;21.75;19.50;;;;;;;;5084048;28;11537;-81
2021/11/04 00:12:44;;;;;;;;;24.75;20.25;;;;;;;;5083869;28;11933;-86
2021/11/04 00:15:12;;;;;;;;;22.25;18.00;;;;;;;;5083480;28;11549;-79
2021/11/04 00:17:39;;;;;;;;;18.50;18.50;;;;;;;;5084163;28;11550;-77
2021/11/04 00:20:09;;;;;;;;;22.00;22.00;;;;;;;;5083339;28;11514;-86
2021/11/04 00:22:37;;;;;;;;;21.75;21.75;;;;;;;;5084065;28;11550;-88
2021/11/04 00:25:05;;;;;;;;;21.75;21.50;;;;;;;;5084953;28;11551;-76
2021/11/04 00:27:33;;;;;;;;;26.75;25.75;;;;;;;;5083776;28;11725;-74
2021/11/04 00:30:01;;;;;;;;;25.00;21.50;;;;;;;;5084637;28;11652;-88
2021/11/04 00:32:28;;;;;;;;;20.50;19.25;;;;;;;;5083197;28;11625;-78
2021/11/04 00:34:55;;;;;;;;;20.50;20.00;;;;;;;;5084603;28;11604;-74
2021/11/04 00:37:23;;;;;;;;;30.00;24.75;;;;;;;;5075527;28;11585;-79
2021/11/04 00:39:50;;;;;;;;;29.00;28.50;;;;;;;;5081893;28;11540;-86
2021/11/04 00:42:18;;;;;;;;;24.75;22.75;;;;;;;;5083758;28;12393;-85
2021/11/04 00:44:46;;;;;;;;;20.50;20.00;;;;;;;;5083782;28;11532;-78
2021/11/04 00:47:14;;;;;;;;;28.75;27.00;;;;;;;;5084477;28;11544;-80
2021/11/04 00:49:41;;;;;;;;;20.25;19.25;;;;;;;;5082363;28;11677;-81
2021/11/04 00:52:08;;;;;;;;;25.00;25.00;;;;;;;;5084631;28;11563;-77
2021/11/04 00:54:36;;;;;;;;;30.75;24.25;;;;;;;;5083246;28;11653;-82
2021/11/04 00:57:04;;;;;;;;;3.75;2.50;;;;;;;;5083879;28;11645;-80
2021/11/04 00:59:31;;;;;;;;;20.25;19.25;;;;;;;;5081730;28;11494;-81
2021/11/04 01:02:00;;;;;;;;;23.25;18.75;;;;;;;;5083775;28;11528;-88
2021/11/04 01:04:27;;;;;;;;;14.50;12.50;;;;;;;;5083841;28;11550;-82
2021/11/04 01:06:54;;;;;;;;;27.75;25.50;;;;;;;;5082987;28;11669;-84
2021/11/04 01:09:21;;;;;;;;;26.75;22.25;;;;;;;;5084764;28;11639;-77
2021/11/04 01:11:49;;;;;;;;;20.00;20.00;;;;;;;;5082864;28;11550;-76
2021/11/04 01:14:16;;;;;;;;;27.75;26.00;;;;;;;;5082191;28;11628;-80
2021/11/04 01:16:44;;;;;;;;;30.75;27.50;;;;;;;;5081107;28;11673;-78
2021/11/04 01:19:14;;;;;;;;;23.00;20.00;;;;;;;;5082061;28;11593;-83
2021/11/04 01:21:42;;;;;;;;;31.50;28.75;;;;;;;;5081761;28;11510;-76
2021/11/04 01:24:09;;;;;;;;;21.50;19.25;;;;;;;;5079158;28;11659;-80
2021/11/04 01:26:37;;;;;;;;;29.00;27.25;;;;;;;;5065431;28;11528;-78
2021/11/04 01:29:04;;;;;;;;;27.00;25.75;;;;;;;;5080821;28;12312;-85
2021/11/04 01:31:31;;;;;;;;;24.50;23.50;;;;;;;;5081295;28;11633;-85
2021/11/04 01:33:58;;;;;;;;;27.75;27.75;;;;;;;;5079365;28;11482;-75
2021/11/04 01:36:27;;;;;;;;;30.75;28.75;;;;;;;;5081995;28;11546;-79
2021/11/04 01:38:55;;;;;;;;;30.00;29.75;;;;;;;;5082037;28;11613;-77
2021/11/04 01:41:22;;;;;;;;;31.25;25.00;;;;;;;;5063877;28;11631;-79
2021/11/04 01:43:49;;;;;;;;;32.25;32.25;;;;;;;;5065735;28;11533;-80
2021/11/04 01:46:20;;;;;;;;;26.25;25.25;;;;;;;;5085754;28;11560;-82
2021/11/04 01:48:48;;;;;;;;;27.00;24.75;;;;;;;;5086979;28;11538;-75
2021/11/04 01:51:15;;;;;;;;;34.50;30.00;;;;;;;;5086707;28;11658;-77
2021/11/04 01:53:44;;;;;;;;;29.50;29.00;;;;;;;;5087500;28;11564;-77
2021/11/04 01:56:11;;;;;;;;;26.75;22.50;;;;;;;;5087185;28;11690;-78
2021/11/04 01:58:39;;;;;;;;;29.25;29.25;;;;;;;;5086821;28;12345;-80
2021/11/04 02:01:06;;;;;;;;;32.25;26.00;;;;;;;;5085462;28;11494;-77
2021/11/04 02:03:37;;;;;;;;;35.00;30.50;;;;;;;;5086264;28;11665;-81
2021/11/04 02:06:12;;;;;;;;;38.75;33.50;;;;;;;;5085059;28;11644;-75
2021/11/04 02:08:45;;;;;;;;;35.75;31.25;;;;;;;;5064552;28;11668;-86
2021/11/04 02:11:15;;;;;;;;;26.25;25.25;;;;;;;;5087073;28;11666;-81
2021/11/04 02:13:49;;;;;;;;;27.00;25.75;;;;;;;;5086039;28;12346;-75
2021/11/04 02:16:18;;;;;;;;;29.25;26.25;;;;;;;;5085304;28;12310;-86
2021/11/04 02:18:47;;;;;;;;;36.25;33.00;;;;;;;;5086347;28;11543;-87
2021/11/04 02:21:21;;;;;;;;;32.25;29.00;;;;;;;;5082393;28;11562;-82
2021/11/04 02:23:54;;;;;;;;;33.75;31.25;;;;;;;;5087255;28;11533;-77
2021/11/04 02:26:22;;;;;;;;;37.50;34.00;;;;;;;;5067605;28;11521;-76
2021/11/04 02:28:50;;;;;;;;;31.50;31.50;;;;;;;;5086157;28;11576;-76
2021/11/04 02:31:18;;;;;;;;;28.00;25.00;;;;;;;;5067497;28;11484;-79
2021/11/04 02:33:45;;;;;;;;;29.50;28.50;;;;;;;;5084935;28;11529;-82
2021/11/04 02:36:13;;;;;;;;;31.50;28.00;;;;;;;;5086442;28;11637;-77
2021/11/04 02:38:41;;;;;;;;;26.75;26.25;;;;;;;;5085380;28;11533;-76
2021/11/04 02:41:08;;;;;;;;;29.00;25.50;;;;;;;;5086819;28;11571;-82
2021/11/04 02:43:37;;;;;;;;;26.75;26.75;;;;;;;;5084175;28;13135;-84
2021/11/04 02:46:05;;;;;;;;;30.25;25.25;;;;;;;;5085622;28;11719;-83
2021/11/04 02:48:33;;;;;;;;;32.75;27.75;;;;;;;;5085633;28;11582;-85
2021/11/04 02:51:01;;;;;;;;;34.50;32.25;;;;;;;;5085468;28;11540;-81
2021/11/04 02:53:30;;;;;;;;;27.00;24.25;;;;;;;;5085762;28;12275;-89
2021/11/04 02:55:58;;;;;;;;;31.50;27.50;;;;;;;;5084936;28;11567;-81
2021/11/04 02:58:27;;;;;;;;;19.00;16.50;;;;;;;;5086459;28;11749;-80
2021/11/04 03:00:58;;;;;;;;;29.00;29.00;;;;;;;;5083759;27;11493;-82
2021/11/04 03:03:26;;;;;;;;;34.00;32.00;;;;;;;;5086775;28;11556;-85
2021/11/04 03:05:53;;;;;;;;;33.00;30.50;;;;;;;;5085147;28;11547;-84
2021/11/04 03:08:21;;;;;;;;;32.00;29.75;;;;;;;;5083573;28;12318;-75
2021/11/04 03:10:48;;;;;;;;;30.25;28.50;;;;;;;;5085760;28;11508;-74
2021/11/04 03:13:15;;;;;;;;;36.00;32.00;;;;;;;;5084346;28;11581;-79
2021/11/04 03:15:46;;;;;;;;;26.50;26.50;;;;;;;;5084906;28;11649;-83
2021/11/04 03:18:15;;;;;;;;;26.00;26.00;;;;;;;;5083189;28;11556;-75
2021/11/04 03:20:43;;;;;;;;;32.25;32.25;;;;;;;;5084889;28;11559;-85
2021/11/04 03:23:10;;;;;;;;;39.25;36.50;;;;;;;;5082344;28;12327;-82
2021/11/04 03:25:39;;;;;;;;;43.25;39.75;;;;;;;;5082727;28;11555;-75
2021/11/04 03:28:07;;;;;;;;;34.00;28.25;;;;;;;;5074680;28;11562;-89
2021/11/04 03:30:37;;;;;;;;;42.50;35.25;;;;;;;;5081658;27;11577;-78
2021/11/04 03:33:05;;;;;;;;;34.75;27.75;;;;;;;;5077104;28;11561;-85
2021/11/04 03:35:36;;;;;;;;;28.75;28.75;;;;;;;;5082628;28;11650;-77
2021/11/04 03:38:13;;;;;;;;;40.75;36.50;;;;;;;;5084553;28;11602;-85
2021/11/04 03:40:42;;;;;;;;;44.25;37.00;;;;;;;;5059747;28;11544;-79
2021/11/04 03:43:10;;;;;;;;;45.75;38.25;;;;;;;;5086441;28;11605;-81
2021/11/04 03:45:39;;;;;;;;;41.75;35.00;;;;;;;;5070063;28;11654;-84
2021/11/04 03:48:07;;;;;;;;;36.75;33.00;;;;;;;;5084814;28;11600;-77
2021/11/04 03:50:37;;;;;;;;;31.50;29.00;;;;;;;;5064106;28;11558;-82
2021/11/04 03:53:04;;;;;;;;;32.00;30.00;;;;;;;;5080541;28;11549;-75
2021/11/04 03:55:32;;;;;;;;;29.00;26.75;;;;;;;;5078494;28;11527;-79
2021/11/04 03:58:00;;;;;;;;;32.00;27.00;;;;;;;;5083393;28;11576;-75
2021/11/04 04:00:28;;;;;;;;;26.00;23.50;;;;;;;;5081228;28;11510;-80
2021/11/04 04:02:56;;;;;;;;;26.75;26.75;;;;;;;;5083899;28;11543;-81
2021/11/04 04:05:30;;;;;;;;;33.00;30.25;;;;;;;;5077450;28;11638;-77
2021/11/04 04:08:00;;;;;;;;;31.00;31.00;;;;;;;;5065297;28;11524;-75
2021/11/04 04:10:30;;;;;;;;;34.75;29.75;;;;;;;;5083251;28;11557;-84
2021/11/04 04:12:57;;;;;;;;;36.25;32.75;;;;;;;;5084458;28;11570;-81
2021/11/04 04:15:24;;;;;;;;;24.75;24.00;;;;;;;;5082994;28;11554;-85
2021/11/04 04:17:52;;;;;;;;;28.25;27.75;;;;;;;;5056172;28;11539;-87
2021/11/04 04:20:20;;;;;;;;;29.00;25.50;;;;;;;;5084055;28;12352;-78
2021/11/04 04:22:47;;;;;;;;;22.75;21.00;;;;;;;;5083628;28;11540;-80
2021/11/04 04:25:16;;;;;;;;;21.75;19.75;;;;;;;;5084767;28;11580;-75
2021/11/04 04:27:43;;;;;;;;;30.75;27.75;;;;;;;;5079262;28;11607;-77
2021/11/04 04:30:10;;;;;;;;;27.50;25.75;;;;;;;;5081294;27;11549;-80
2021/11/04 04:32:38;;;;;;;;;33.00;28.75;;;;;;;;5083093;28;11519;-77
2021/11/04 04:35:06;;;;;;;;;31.75;27.25;;;;;;;;5082864;28;11531;-86
2021/11/04 04:37:33;;;;;;;;;35.25;27.50;;;;;;;;5078976;28;12365;-87
2021/11/04 04:40:00;;;;;;;;;32.50;26.75;;;;;;;;5080954;28;11545;-75
2021/11/04 04:42:29;;;;;;;;;26.50;24.50;;;;;;;;5082154;28;11549;-77
2021/11/04 04:44:56;;;;;;;;;26.25;26.25;;;;;;;;5082216;28;11590;-80
2021/11/04 04:47:24;;;;;;;;;30.75;30.75;;;;;;;;5065716;28;11547;-78
2021/11/04 04:49:51;;;;;;;;;25.75;25.75;;;;;;;;5080196;28;11565;-78
2021/11/04 04:52:18;;;;;;;;;29.75;27.25;;;;;;;;5083024;28;11676;-78
2021/11/04 04:54:46;;;;;;;;;32.75;28.00;;;;;;;;5083864;28;11684;-88
2021/11/04 04:57:13;;;;;;;;;35.75;31.25;;;;;;;;5082754;28;11548;-81
2021/11/04 04:59:42;;;;;;;;;28.50;28.50;;;;;;;;5084739;28;11559;-74
2021/11/04 05:02:09;;;;;;;;;26.25;26.25;;;;;;;;5082245;28;11517;-74
2021/11/04 05:04:37;;;;;;;;;25.00;23.75;;;;;;;;5082619;28;11548;-77
2021/11/04 05:07:04;;;;;;;;;26.50;26.50;;;;;;;;5079625;28;11576;-81
2021/11/04 05:09:31;;;;;;;;;27.00;27.00;;;;;;;;5082047;28;11727;-75
2021/11/04 05:11:59;;;;;;;;;33.75;33.75;;;;;;;;5085754;28;12457;-82
2021/11/04 05:14:26;;;;;;;;;26.25;24.50;;;;;;;;5085794;28;11670;-82
2021/11/04 05:16:55;;;;;;;;;33.50;29.75;;;;;;;;5082767;28;11575;-75
2021/11/04 05:19:22;;;;;;;;;25.75;25.75;;;;;;;;5080843;28;11665;-87
2021/11/04 05:21:50;;;;;;;;;27.25;24.25;;;;;;;;5084023;28;11561;-82
2021/11/04 05:24:17;;;;;;;;;25.50;25.25;;;;;;;;5081543;28;11706;-74
2021/11/04 05:26:45;;;;;;;;;26.00;24.75;;;;;;;;5075992;28;11681;-81
2021/11/04 05:29:12;;;;;;;;;25.75;23.25;;;;;;;;5082427;28;11550;-78
2021/11/04 05:31:40;;;;;;;;;20.00;19.50;;;;;;;;5082150;28;11497;-84
2021/11/04 05:34:08;;;;;;;;;26.50;26.00;;;;;;;;5074099;28;11584;-85
2021/11/04 05:36:36;;;;;;;;;25.75;22.75;;;;;;;;5075922;28;11608;-79
2021/11/04 05:39:03;;;;;;;;;21.75;21.75;;;;;;;;5075911;28;11570;-84
2021/11/04 05:41:31;;;;;;;;;25.75;22.25;;;;;;;;5076585;28;11734;-76
2021/11/04 05:43:58;;;;;;;;;24.75;20.25;;;;;;;;5080937;28;11498;-75
2021/11/04 05:46:25;;;;;;;;;25.00;25.00;;;;;;;;5091744;28;11524;-75
2021/11/04 05:48:53;;;;;;;;;17.00;15.00;;;;;;;;5082954;28;11659;-79
2021/11/04 05:51:22;;;;;;;;;23.50;23.50;;;;;;;;5083841;28;11676;-85
2021/11/04 05:53:49;;;;;;;;;30.75;26.50;;;;;;;;5082955;28;11612;-79
2021/11/04 05:56:16;;;;;;;;;25.75;25.50;;;;;;;;5065950;28;11472;-81
2021/11/04 05:58:44;;;;;;;;;22.75;22.75;;;;;;;;5082006;28;11535;-84
2021/11/04 06:01:11;;;;;;;;;22.50;17.75;;;;;;;;5080775;28;11810;-80
2021/11/04 06:03:38;;;;;;;;;22.00;21.25;;;;;;;;5082487;28;11597;-74
2021/11/04 06:06:05;;;;;;;;;20.50;19.00;;;;;;;;5064873;28;11485;-73
2021/11/04 06:08:34;;;;;;;;;22.25;19.75;;;;;;;;5081831;28;11467;-82
2021/11/04 06:11:03;;;;;;;;;18.50;18.50;;;;;;;;5081486;28;11503;-78
2021/11/04 06:13:30;;;;;;;;;24.25;22.00;;;;;;;;5083158;28;12390;-77
2021/11/04 06:15:57;;;;;;;;;24.75;21.75;;;;;;;;5082109;28;11514;-82
2021/11/04 06:18:25;;;;;;;;;27.50;20.00;;;;;;;;5083900;28;11546;-83
2021/11/04 06:20:52;;;;;;;;;20.25;20.00;;;;;;;;5082906;28;11459;-77
2021/11/04 06:23:19;;;;;;;;;24.25;24.25;;;;;;;;5082960;28;11491;-77
2021/11/04 06:25:48;;;;;;;;;26.00;21.25;;;;;;;;5083743;28;11448;-80
2021/11/04 06:28:15;;;;;;;;;21.25;18.25;;;;;;;;5066131;28;11484;-83
2021/11/04 06:30:43;;;;;;;;;25.50;20.50;;;;;;;;5086313;28;11452;-83
2021/11/04 06:33:10;;;;;;;;;17.25;17.25;;;;;;;;5085377;28;11475;-82
2021/11/04 06:35:37;;;;;;;;;14.75;14.00;;;;;;;;5086381;28;11485;-82
2021/11/04 06:38:05;;;;;;;;;22.25;19.00;;;;;;;;5086876;28;11496;-81
2021/11/04 06:40:32;;;;;;;;;15.25;13.50;;;;;;;;5086910;28;12360;-84
2021/11/04 06:43:01;;;;;;;;;11.00;11.00;;;;;;;;5086019;28;11466;-83
2021/11/04 06:45:28;;;;;;;;;16.50;12.50;;;;;;;;5086136;28;11480;-84
2021/11/04 06:47:59;;;;;;;;;19.00;18.50;;;;;;;;5087362;28;11494;-84
2021/11/04 06:50:32;;;;;;;;;16.75;15.50;;;;;;;;5085246;28;11617;-82
2021/11/04 06:53:06;;;;;;;;;16.00;16.00;;;;;;;;5101420;28;11476;-82
2021/11/04 06:55:35;;;;;;;;;10.50;9.50;;;;;;;;5086017;28;11472;-81
2021/11/04 06:58:07;;;;;;;;;20.75;17.00;;;;;;;;5085158;28;11642;-82
2021/11/04 07:00:37;;;;;;;;;18.00;16.25;;;;;;;;5079219;28;11524;-80
2021/11/04 07:03:14;;;;;;;;;15.50;15.50;;;;;;;;5083159;28;11402;-78
2021/11/04 07:05:45;;;;;;;;;11.25;11.25;;;;;;;;5079737;28;11464;-76
2021/11/04 07:08:19;;;;;;;;;15.75;15.00;;;;;;;;5064859;28;11176;-82
2021/11/04 07:10:47;;;;;;;;;10.50;10.00;;;;;;;;5085741;28;11121;-79
2021/11/04 07:13:16;;;;;;;;;15.50;13.75;;;;;;;;5083287;28;11061;-76
2021/11/04 07:15:44;;;;;;;;;22.50;19.00;;;;;;;;5066569;28;11107;-78
2021/11/04 07:18:12;;;;;;;;;13.75;13.75;;;;;;;;5068002;28;11213;-75
2021/11/04 07:20:42;;;;;;;;;14.00;11.25;;;;;;;;5063564;28;11120;-75
2021/11/04 07:23:14;;;;;;;;;9.00;9.00;;;;;;;;5085442;28;10868;-77
2021/11/04 07:25:43;;;;;;;;;10.00;10.00;;;;;;;;5083867;28;11013;-77
2021/11/04 07:28:18;;;;;;;;;14.75;10.25;;;;;;;;5084239;28;10953;-77
2021/11/04 07:30:45;;;;;;;;;20.25;12.75;;;;;;;;5083490;28;10802;-77
2021/11/04 07:33:15;;;;;;;;;19.00;15.25;;;;;;;;5083779;28;10809;-78
2021/11/04 07:35:44;;;;;;;;;23.00;14.75;;;;;;;;5084084;28;10992;-77
2021/11/04 07:38:13;;;;;;;;;11.25;11.25;;;;;;;;5066042;28;10994;-79
2021/11/04 07:40:41;;;;;;;;;10.25;10.25;;;;;;;;5081788;28;10857;-77
2021/11/04 07:43:09;;;;;;;;;11.25;11.25;;;;;;;;5079666;28;10660;-79
2021/11/04 07:45:38;;;;;;;;;12.50;12.50;;;;;;;;5081725;28;10749;-77
2021/11/04 07:48:06;;;;;;;;;10.25;10.00;;;;;;;;5083661;28;10937;-79
2021/11/04 07:50:34;;;;;;;;;14.25;14.00;;;;;;;;5083000;28;10787;-79
2021/11/04 07:53:01;;;;;;;;;9.75;9.75;;;;;;;;5083852;28;10762;-78
2021/11/04 07:55:29;;;;;;;;;7.00;7.00;;;;;;;;5082481;28;10775;-78
2021/11/04 07:57:57;;;;;;;;;10.75;10.25;;;;;;;;5084410;28;10797;-77
2021/11/04 08:00:28;;;;;;;;;14.00;11.25;;;;;;;;5081216;27;10577;-79
2021/11/04 08:02:57;;;;;;;;;7.50;7.50;;;;;;;;5083861;28;10593;-79
2021/11/04 08:05:25;;;;;;;;;11.75;11.75;;;;;;;;5081288;28;10648;-77
2021/11/04 08:07:52;;;;;;;;;7.50;6.00;;;;;;;;5064700;28;10762;-78
2021/11/04 08:10:20;;;;;;;;;5.75;2.00;;;;;;;;5083886;28;10655;-77
2021/11/04 08:12:48;;;;;;;;;1.00;1.00;;;;;;;;5082378;28;10530;-79
2021/11/04 08:15:16;;;;;;;;;1.00;1.00;;;;;;;;5083716;28;10450;-77
2021/11/04 08:17:43;;;;;;;;;1.25;1.00;;;;;;;;5064779;28;10463;-80
2021/11/04 08:20:13;;;;;;;;;5.00;3.00;;;;;;;;5083665;28;10303;-76
2021/11/04 08:22:40;;;;;;;;;1.00;1.00;;;;;;;;5065033;28;10587;-80
2021/11/04 08:25:10;;;;;;;;;1.00;1.00;;;;;;;;5082809;28;10589;-79
2021/11/04 08:27:38;;;;;;;;;3.00;1.50;;;;;;;;5084010;28;10399;-78
2021/11/04 08:30:06;;;;;;;;;2.75;1.75;;;;;;;;5081373;27;10458;-79
2021/11/04 08:32:34;;;;;;;;;3.00;2.00;;;;;;;;5083137;28;10423;-77
2021/11/04 08:35:01;;;;;;;;;2.00;1.25;;;;;;;;5082130;28;10577;-79
2021/11/04 08:37:30;;;;;;;;;4.00;2.50;;;;;;;;5083159;28;10571;-76
2021/11/04 08:39:57;;;;;;;;;2.00;2.00;;;;;;;;5085457;28;11353;-77
2021/11/04 08:42:25;;;;;;;;;6.00;5.50;;;;;;;;5080406;28;10443;-77
2021/11/04 08:44:52;;;;;;;;;4.00;1.75;;;;;;;;5081599;28;10398;-78
2021/11/04 08:47:19;;;;;;;;;2.00;2.00;;;;;;;;5082363;28;10570;-76
2021/11/04 08:49:46;;;;;;;;;2.25;2.00;;;;;;;;5080164;28;10430;-78
2021/11/04 08:52:14;;;;;;;;;4.25;1.25;;;;;;;;5060331;28;10392;-77
2021/11/04 08:54:43;;;;;;;;;3.50;1.75;;;;;;;;5081407;28;10478;-78
2021/11/04 08:57:12;;;;;;;;;2.00;2.00;;;;;;;;5083355;28;10308;-80
2021/11/04 08:59:41;;;;;;;;;6.25;3.00;;;;;;;;5095399;28;10418;-80
2021/11/04 09:02:11;;;;;;;;;2.00;2.00;;;;;;;;5082621;28;10345;-79
2021/11/04 09:04:42;;;;;;;;;2.25;2.25;;;;;;;;5080543;28;10432;-79
2021/11/04 09:07:10;;;;;;;;;1.50;1.50;;;;;;;;5080840;28;10390;-79
2021/11/04 09:09:37;;;;;;;;;2.00;2.00;;;;;;;;5080720;28;10438;-82
2021/11/04 09:12:07;;;;;;;;;1.00;1.00;;;;;;;;5083871;28;10297;-81
2021/11/04 09:14:35;;;;;;;;;1.00;1.00;;;;;;;;5082685;28;10240;-82
2021/11/04 09:17:03;;;;;;;;;1.50;1.50;;;;;;;;5083003;28;10956;-82
2021/11/04 09:19:31;;;;;;;;;0.00;0.00;;;;;;;;5083205;28;10143;-81
2021/11/04 09:21:59;;;;;;;;;4.50;1.25;;;;;;;;5077941;28;10314;-79
2021/11/04 09:24:28;;;;;;;;;2.00;1.00;;;;;;;;5079965;28;10204;-77
2021/11/04 09:26:55;;;;;;;;;2.75;1.00;;;;;;;;5081844;28;10876;-81
2021/11/04 09:29:24;;;;;;;;;1.00;1.00;;;;;;;;5083878;28;10195;-77
2021/11/04 09:31:52;;;;;;;;;0.75;0.75;;;;;;;;5089395;28;10069;-78
2021/11/04 09:34:20;;;;;;;;;1.50;1.50;;;;;;;;5079275;28;10003;-76
2021/11/04 09:36:47;;;;;;;;;1.50;1.00;;;;;;;;5076952;28;10225;-78
2021/11/04 09:39:15;;;;;;;;;2.00;1.00;;;;;;;;5081728;28;10243;-81
2021/11/04 09:41:43;;;;;;;;;0.75;0.75;;;;;;;;5083407;28;10310;-80
2021/11/04 09:44:11;;;;;;;;;1.00;1.00;;;;;;;;5081589;28;10340;-81
2021/11/04 09:46:40;;;;;;;;;1.25;1.25;;;;;;;;5081695;28;10316;-78
2021/11/04 09:49:08;;;;;;;;;1.00;1.00;;;;;;;;5080178;28;10301;-79
2021/11/04 09:51:36;;;;;;;;;1.00;1.00;;;;;;;;5081508;28;10175;-80
2021/11/04 09:54:04;;;;;;;;;0.75;0.75;;;;;;;;5081368;28;10305;-79
2021/11/04 09:56:31;;;;;;;;;1.50;1.00;;;;;;;;5081209;28;10199;-80
2021/11/04 09:58:58;;;;;;;;;2.25;1.00;;;;;;;;5062971;28;10270;-79
2021/11/04 10:01:28;;;;;;;;;1.00;1.00;;;;;;;;5079033;28;10664;-78
2021/11/04 10:03:58;;;;;;;;;1.00;1.00;;;;;;;;5087038;28;10281;-79
2021/11/04 10:06:26;;;;;;;;;0.75;0.75;;;;;;;;5082931;28;10238;-77
2021/11/04 10:08:58;;;;;;;;;2.00;1.00;;;;;;;;5086833;28;10307;-78
2021/11/04 10:11:29;;;;;;;;;2.00;2.00;;;;;;;;5086717;28;10233;-78
2021/11/04 10:14:02;;;;;;;;;0.00;0.00;;;;;;;;5086669;28;10235;-79
2021/11/04 10:16:30;;;;;;;;;1.00;1.00;;;;;;;;5086873;28;10143;-76
2021/11/04 10:19:03;;;;;;;;;1.00;1.00;;;;;;;;5067766;28;10901;-76
2021/11/04 10:21:31;;;;;;;;;2.00;2.00;;;;;;;;5086825;28;10218;-78
2021/11/04 10:24:00;;;;;;;;;1.00;1.00;;;;;;;;5086555;28;10272;-78
2021/11/04 10:26:29;;;;;;;;;1.00;1.00;;;;;;;;5086878;28;10110;-77
2021/11/04 10:29:00;;;;;;;;;0.00;0.00;;;;;;;;5087056;28;10133;-81
2021/11/04 10:31:37;;;;;;;;;0.75;0.75;;;;;;;;5085211;27;10108;-82
2021/11/04 10:34:12;;;;;;;;;0.50;0.50;;;;;;;;5087334;28;10155;-80
2021/11/04 10:36:42;;;;;;;;;1.00;1.00;;;;;;;;5083366;28;10211;-80
2021/11/04 10:39:09;;;;;;;;;1.25;1.00;;;;;;;;5086823;28;10305;-78
2021/11/04 10:41:39;;;;;;;;;0.75;0.75;;;;;;;;5082744;28;10186;-79
2021/11/04 10:44:09;;;;;;;;;0.25;0.25;;;;;;;;5068332;28;10169;-81
2021/11/04 10:46:41;;;;;;;;;0.00;0.00;;;;;;;;5082880;28;10100;-80
2021/11/04 10:49:10;;;;;;;;;2.00;1.00;;;;;;;;5085412;28;10238;-79
2021/11/04 10:51:38;;;;;;;;;0.00;0.00;;;;;;;;5086344;28;10098;-81
2021/11/04 10:54:07;;;;;;;;;1.75;0.00;;;;;;;;5067129;28;10301;-81
2021/11/04 10:56:36;;;;;;;;;0.00;0.00;;;;;;;;5085569;28;9928;-81
2021/11/04 10:59:06;;;;;;;;;0.50;0.50;;;;;;;;5086347;28;9971;-79
2021/11/04 11:01:36;;;;;;;;;0.75;0.75;;;;;;;;5085197;28;10227;-78
2021/11/04 11:04:08;;;;;;;;;0.75;0.75;;;;;;;;5086246;28;10156;-81
2021/11/04 11:06:40;;;;;;;;;0.00;0.00;;;;;;;;5066788;28;10103;-77
2021/11/04 11:09:11;;;;;;;;;0.00;0.00;;;;;;;;5086693;28;10927;-76
2021/11/04 11:11:40;;;;;;;;;0.00;0.00;;;;;;;;5084879;28;10190;-77
2021/11/04 11:14:08;;;;;;;;;0.00;0.00;;;;;;;;5085202;28;10230;-78
2021/11/04 11:16:39;;;;;;;;;0.00;0.00;;;;;;;;5085350;28;10220;-78
2021/11/04 11:19:09;;;;;;;;;1.75;0.50;;;;;;;;5067414;28;10121;-78
2021/11/04 11:21:42;;;;;;;;;0.00;0.00;;;;;;;;5085482;28;10144;-79
2021/11/04 11:24:12;;;;;;;;;1.00;1.00;;;;;;;;5084069;28;10181;-79
2021/11/04 11:26:40;;;;;;;;;1.00;1.00;;;;;;;;5084999;28;10012;-79
2021/11/04 11:29:07;;;;;;;;;1.00;1.00;;;;;;;;5084201;28;10696;-77
2021/11/04 11:31:35;;;;;;;;;0.25;0.25;;;;;;;;5084287;27;10036;-79
2021/11/04 11:34:27;;;;;;;;;0.75;0.75;;;;;;;;5085383;28;10646;-78
2021/11/04 11:37:15;;;;;;;;;0.75;0.75;;;;;;;;5062083;28;10685;-79
2021/11/04 11:39:44;;;;;;;;;0.00;0.00;;;;;;;;5082902;28;9930;-78
2021/11/04 11:42:13;;;;;;;;;0.00;0.00;;;;;;;;5080854;28;9845;-78
2021/11/04 11:44:44;;;;;;;;;0.75;0.75;;;;;;;;5065895;28;9855;-81
2021/11/04 11:47:18;;;;;;;;;0.25;0.25;;;;;;;;5079325;28;10110;-79
2021/11/04 11:49:47;;;;;;;;;1.00;1.00;;;;;;;;5080283;28;10038;-78
2021/11/04 11:52:46;;;;;;;;;0.00;0.00;;;;;;;;5086149;28;10062;-75
2021/11/04 11:55:16;;;;;;;;;0.00;0.00;;;;;;;;5089784;28;9926;-78
2021/11/04 11:58:22;;;;;;;;;0.50;0.50;;;;;;;;5085571;28;10012;-83
2021/11/04 12:00:57;;;;;;;;;0.00;0.00;;;;;;;;5076229;28;9990;-77
2021/11/04 12:03:47;;;;;;;;;0.00;0.00;;;;;;;;5083837;28;9967;-78
2021/11/04 12:06:51;;;;;;;;;0.00;0.00;;;;;;;;5085439;28;9946;-79
2021/11/04 12:09:44;;;;;;;;;0.00;0.00;;;;;;;;5084601;28;10076;-79
2021/11/04 12:12:42;;;;;;;;;1.00;1.00;;;;;;;;5084072;28;9925;-80
2021/11/04 12:15:11;;;;;;;;;1.50;1.00;;;;;;;;5080542;28;10172;-80
2021/11/04 12:17:38;;;;;;;;;0.00;0.00;;;;;;;;5084043;28;10178;-78
2021/11/04 12:20:07;;;;;;;;;0.00;0.00;;;;;;;;5083353;28;9988;-78
2021/11/04 12:22:39;;;;;;;;;0.00;0.00;;;;;;;;5066142;28;9943;-79
2021/11/04 12:25:09;;;;;;;;;2.50;1.00;;;;;;;;5083488;28;9772;-79
2021/11/04 12:27:40;;;;;;;;;0.50;0.50;;;;;;;;5085144;28;10864;-83
2021/11/04 12:30:16;;;;;;;;;1.00;1.00;;;;;;;;5082699;28;10811;-82
2021/11/04 12:32:44;;;;;;;;;1.00;1.00;;;;;;;;5081298;28;9849;-80
2021/11/04 12:35:12;;;;;;;;;1.00;0.00;;;;;;;;5083826;28;9917;-80
2021/11/04 12:37:40;;;;;;;;;0.00;0.00;;;;;;;;5094399;28;9961;-81
2021/11/04 12:40:15;;;;;;;;;0.00;0.00;;;;;;;;5082624;28;9748;-82
2021/11/04 12:42:45;;;;;;;;;1.00;1.00;;;;;;;;5082222;28;9931;-80
2021/11/04 12:45:13;;;;;;;;;0.00;0.00;;;;;;;;5082274;28;10726;-84
2021/11/04 12:47:41;;;;;;;;;1.00;1.00;;;;;;;;5083065;28;9948;-82
2021/11/04 12:50:08;;;;;;;;;1.75;1.75;;;;;;;;5084238;28;9775;-84
2021/11/04 12:52:35;;;;;;;;;2.00;2.00;;;;;;;;5084119;28;9864;-85
2021/11/04 12:55:05;;;;;;;;;0.00;0.00;;;;;;;;5064490;28;9873;-82
2021/11/04 12:57:33;;;;;;;;;1.00;1.00;;;;;;;;5084437;28;9894;-79
2021/11/04 13:00:03;;;;;;;;;1.25;1.25;;;;;;;;5082613;28;9902;-79
2021/11/04 13:02:33;;;;;;;;;2.50;1.00;;;;;;;;5083222;28;9952;-80
2021/11/04 13:05:02;;;;;;;;;1.50;1.50;;;;;;;;5082286;28;9680;-78
2021/11/04 13:07:31;;;;;;;;;1.25;1.25;;;;;;;;5084509;28;10076;-81
2021/11/04 13:10:01;;;;;;;;;1.75;1.25;;;;;;;;5083504;28;9860;-79
2021/11/04 13:12:31;;;;;;;;;4.00;1.75;;;;;;;;5083219;28;9845;-82
2021/11/04 13:15:03;;;;;;;;;1.00;1.00;;;;;;;;5083666;28;9864;-82
2021/11/04 13:17:49;;;;;;;;;1.00;1.00;;;;;;;;5082615;28;9841;-78
2021/11/04 13:20:18;;;;;;;;;1.25;1.25;;;;;;;;5081698;28;9884;-83
2021/11/04 13:22:48;;;;;;;;;1.00;1.00;;;;;;;;5083433;28;9916;-82
2021/11/04 13:25:17;;;;;;;;;1.00;1.00;;;;;;;;5083400;28;9832;-82
2021/11/04 13:27:46;;;;;;;;;1.25;1.25;;;;;;;;5082468;28;9685;-81
2021/11/04 13:30:14;;;;;;;;;1.00;1.00;;;;;;;;5082285;27;9929;-79
2021/11/04 13:32:49;;;;;;;;;1.75;0.00;;;;;;;;5081118;28;10517;-83
2021/11/04 13:35:31;;;;;;;;;1.00;1.00;;;;;;;;5082007;28;9785;-80
2021/11/04 13:38:20;;;;;;;;;0.00;0.00;;;;;;;;5086592;28;9905;-80
2021/11/04 13:40:52;;;;;;;;;0.50;0.50;;;;;;;;5075689;28;9779;-83
2021/11/04 13:43:21;;;;;;;;;0.50;0.50;;;;;;;;5087426;28;9978;-81
2021/11/04 13:46:05;;;;;;;;;0.50;0.50;;;;;;;;5087907;28;9711;-80
2021/11/04 13:48:33;;;;;;;;;0.75;0.75;;;;;;;;5088260;28;9712;-80
2021/11/04 13:51:00;;;;;;;;;0.00;0.00;;;;;;;;5085488;28;9859;-84
2021/11/04 13:53:28;;;;;;;;;0.50;0.50;;;;;;;;5086531;28;9839;-80
2021/11/04 13:55:56;;;;;;;;;0.00;0.00;;;;;;;;5068610;28;9785;-79
2021/11/04 13:58:42;;;;;;;;;2.00;1.00;;;;;;;;5088669;28;9681;-78
2021/11/04 14:01:11;;;;;;;;;1.00;1.00;;;;;;;;5085741;27;10407;-80
2021/11/04 14:03:41;;;;;;;;;0.00;0.00;;;;;;;;5087310;28;9679;-79
2021/11/04 14:06:09;;;;;;;;;0.25;0.25;;;;;;;;5086883;28;9848;-79
2021/11/04 14:08:38;;;;;;;;;1.00;1.00;;;;;;;;5086569;28;9794;-76
2021/11/04 14:11:13;;;;;;;;;1.00;1.00;;;;;;;;5087376;28;9689;-78
2021/11/04 14:14:08;;;;;;;;;0.00;0.00;;;;;;;;5087504;28;9851;-76
2021/11/04 14:16:38;;;;;;;;;0.75;0.50;;;;;;;;5070048;28;9810;-80
2021/11/04 14:19:07;;;;;;;;;0.50;0.50;;;;;;;;5086448;28;9713;-79
2021/11/04 14:21:37;;;;;;;;;0.75;0.75;;;;;;;;5066170;28;9646;-77
2021/11/04 14:24:06;;;;;;;;;2.00;1.00;;;;;;;;5086416;28;9822;-77
2021/11/04 14:26:36;;;;;;;;;0.00;0.00;;;;;;;;5083330;28;9613;-79
2021/11/04 14:29:05;;;;;;;;;0.75;0.75;;;;;;;;5053976;28;9718;-86
2021/11/04 14:31:33;;;;;;;;;1.00;1.00;;;;;;;;5085046;28;9792;-78
2021/11/04 14:34:02;;;;;;;;;0.00;0.00;;;;;;;;5069016;28;9766;-79
2021/11/04 14:36:29;;;;;;;;;1.75;1.75;;;;;;;;5085848;28;9682;-81
2021/11/04 14:38:57;;;;;;;;;2.00;2.00;;;;;;;;5084577;28;9883;-80
2021/11/04 14:41:25;;;;;;;;;0.00;0.00;;;;;;;;5068376;28;9753;-75
2021/11/04 14:43:52;;;;;;;;;1.00;1.00;;;;;;;;5085117;28;9751;-85